sensor_id;sensor_type;location;lat;lon;timestamp;pressure;altitude;pressure_sealevel;temperature
38249;BMP280;24045;51.138;17.126;2023-04-19T00:00:25;100812.39;;;10.96
38249;BMP280;24045;51.138;17.126;2023-04-19T00:15:48;100806.34;;;10.80
38249;BMP280;24045;51.138;17.126;2023-04-19T00:30:51;100799.48;;;10.59
38249;BMP280;24045;51.138;17.126;2023-04-19T00:45:53;100787.99;;;10.34
38249;BMP280;24045;51.138;17.126;2023-04-19T01:00:57;100766.31;;;10.07
38249;BMP280;24045;51.138;17.126;2023-04-19T01:15:59;100738.68;;;9.79
38249;BMP280;24045;51.138;17.126;2023-04-19T01:31:02;100731.20;;;9.58
38249;BMP280;24045;51.138;17.126;2023-04-19T01:46:05;100715.86;;;9.40
38249;BMP280;24045;51.138;17.126;2023-04-19T02:01:08;100701.10;;;9.18
38249;BMP280;24045;51.138;17.126;2023-04-19T02:16:14;100694.95;;;9.00
38249;BMP280;24045;51.138;17.126;2023-04-19T02:31:16;100691.82;;;8.78
38249;BMP280;24045;51.138;17.126;2023-04-19T02:46:19;100688.77;;;8.54
38249;BMP280;24045;51.138;17.126;2023-04-19T03:01:22;100678.61;;;8.26
38249;BMP280;24045;51.138;17.126;2023-04-19T03:16:25;100660.35;;;8.06
38249;BMP280;24045;51.138;17.126;2023-04-19T03:31:28;100656.61;;;7.98
38249;BMP280;24045;51.138;17.126;2023-04-19T03:46:31;100636.98;;;7.89
38249;BMP280;24045;51.138;17.126;2023-04-19T04:01:35;100629.31;;;7.70
38249;BMP280;24045;51.138;17.126;2023-04-19T04:16:43;100645.73;;;7.47
38249;BMP280;24045;51.138;17.126;2023-04-19T04:31:46;100650.89;;;7.29
38249;BMP280;24045;51.138;17.126;2023-04-19T04:46:48;100646.69;;;6.32
38249;BMP280;24045;51.138;17.126;2023-04-19T05:01:51;100647.02;;;5.76
38249;BMP280;24045;51.138;17.126;2023-04-19T05:16:54;100641.73;;;5.42
38249;BMP280;24045;51.138;17.126;2023-04-19T05:31:57;100643.84;;;5.37
38249;BMP280;24045;51.138;17.126;2023-04-19T05:47:00;100634.55;;;5.43
38249;BMP280;24045;51.138;17.126;2023-04-19T06:02:03;100629.17;;;5.40
38249;BMP280;24045;51.138;17.126;2023-04-19T06:17:06;100623.02;;;5.50
38249;BMP280;24045;51.138;17.126;2023-04-19T06:32:09;100630.64;;;5.69
38249;BMP280;24045;51.138;17.126;2023-04-19T06:47:12;100638.05;;;5.98
38249;BMP280;24045;51.138;17.126;2023-04-19T07:02:14;100632.90;;;6.48
38249;BMP280;24045;51.138;17.126;2023-04-19T07:17:18;100635.64;;;7.15
38249;BMP280;24045;51.138;17.126;2023-04-19T07:32:21;100630.77;;;7.14
38249;BMP280;24045;51.138;17.126;2023-04-19T07:47:24;100622.74;;;7.36
38249;BMP280;24045;51.138;17.126;2023-04-19T08:02:27;100622.59;;;9.51
38249;BMP280;24045;51.138;17.126;2023-04-19T08:17:30;100608.77;;;8.92
38249;BMP280;24045;51.138;17.126;2023-04-19T08:32:43;100608.63;;;8.72
38249;BMP280;24045;51.138;17.126;2023-04-19T08:47:46;100613.05;;;8.05
38249;BMP280;24045;51.138;17.126;2023-04-19T09:03:02;100603.41;;;7.76
38249;BMP280;24045;51.138;17.126;2023-04-19T09:18:31;100605.05;;;8.36
38249;BMP280;24045;51.138;17.126;2023-04-19T09:33:39;100590.02;;;8.26
38249;BMP280;24045;51.138;17.126;2023-04-19T09:48:42;100586.68;;;8.39
38249;BMP280;24045;51.138;17.126;2023-04-19T10:03:47;100593.52;;;8.21
38249;BMP280;24045;51.138;17.126;2023-04-19T10:18:51;100587.39;;;8.07
38249;BMP280;24045;51.138;17.126;2023-04-19T10:33:54;100584.19;;;7.91
38249;BMP280;24045;51.138;17.126;2023-04-19T10:49:00;100569.27;;;7.92
38249;BMP280;24045;51.138;17.126;2023-04-19T11:05:05;100569.30;;;7.76
38249;BMP280;24045;51.138;17.126;2023-04-19T11:19:36;100565.90;;;7.60
38249;BMP280;24045;51.138;17.126;2023-04-19T11:34:39;100566.74;;;7.61
38249;BMP280;24045;51.138;17.126;2023-04-19T11:49:42;100557.48;;;7.62
38249;BMP280;24045;51.138;17.126;2023-04-19T12:04:45;100561.55;;;7.55
38249;BMP280;24045;51.138;17.126;2023-04-19T12:19:48;100563.33;;;7.46
38249;BMP280;24045;51.138;17.126;2023-04-19T12:34:50;100560.09;;;7.26
38249;BMP280;24045;51.138;17.126;2023-04-19T12:49:53;100568.20;;;7.04
38249;BMP280;24045;51.138;17.126;2023-04-19T13:04:58;100565.93;;;7.02
38249;BMP280;24045;51.138;17.126;2023-04-19T13:20:01;100564.21;;;6.99
38249;BMP280;24045;51.138;17.126;2023-04-19T13:35:05;100561.92;;;7.13
38249;BMP280;24045;51.138;17.126;2023-04-19T13:50:08;100566.60;;;7.43
38249;BMP280;24045;51.138;17.126;2023-04-19T14:05:10;100560.16;;;7.79
38249;BMP280;24045;51.138;17.126;2023-04-19T14:20:13;100549.45;;;8.07
38249;BMP280;24045;51.138;17.126;2023-04-19T14:35:17;100549.20;;;8.07
38249;BMP280;24045;51.138;17.126;2023-04-19T14:50:19;100547.63;;;8.23
38249;BMP280;24045;51.138;17.126;2023-04-19T15:05:24;100549.31;;;8.29
38249;BMP280;24045;51.138;17.126;2023-04-19T15:20:29;100548.90;;;8.22
38249;BMP280;24045;51.138;17.126;2023-04-19T15:35:32;100547.93;;;8.07
38249;BMP280;24045;51.138;17.126;2023-04-19T15:50:35;100546.19;;;8.19
38249;BMP280;24045;51.138;17.126;2023-04-19T16:05:38;100544.26;;;8.42
38249;BMP280;24045;51.138;17.126;2023-04-19T16:20:41;100552.29;;;8.06
38249;BMP280;24045;51.138;17.126;2023-04-19T16:35:44;100566.20;;;8.02
38249;BMP280;24045;51.138;17.126;2023-04-19T16:50:48;100570.54;;;7.89
38249;BMP280;24045;51.138;17.126;2023-04-19T17:05:50;100571.13;;;7.69
38249;BMP280;24045;51.138;17.126;2023-04-19T17:20:53;100585.33;;;7.53
38249;BMP280;24045;51.138;17.126;2023-04-19T17:35:56;100589.45;;;7.41
38249;BMP280;24045;51.138;17.126;2023-04-19T17:50:59;100591.52;;;7.29
38249;BMP280;24045;51.138;17.126;2023-04-19T18:06:02;100597.30;;;7.17
38249;BMP280;24045;51.138;17.126;2023-04-19T18:21:05;100613.02;;;7.09
38249;BMP280;24045;51.138;17.126;2023-04-19T18:36:08;100626.33;;;7.03
38249;BMP280;24045;51.138;17.126;2023-04-19T18:51:11;100634.90;;;6.98
38249;BMP280;24045;51.138;17.126;2023-04-19T19:06:13;100635.88;;;6.93
38249;BMP280;24045;51.138;17.126;2023-04-19T19:21:17;100629.36;;;6.85
38249;BMP280;24045;51.138;17.126;2023-04-19T19:36:20;100634.58;;;6.72
38249;BMP280;24045;51.138;17.126;2023-04-19T19:51:23;100641.60;;;6.54
38249;BMP280;24045;51.138;17.126;2023-04-19T20:06:45;100660.60;;;6.41
38249;BMP280;24045;51.138;17.126;2023-04-19T20:21:51;100662.20;;;6.32
38249;BMP280;24045;51.138;17.126;2023-04-19T20:36:53;100664.35;;;6.32
38249;BMP280;24045;51.138;17.126;2023-04-19T20:51:56;100674.02;;;6.32
38249;BMP280;24045;51.138;17.126;2023-04-19T21:06:59;100656.63;;;6.22
38249;BMP280;24045;51.138;17.126;2023-04-19T21:22:02;100666.85;;;6.06
38249;BMP280;24045;51.138;17.126;2023-04-19T21:37:05;100667.32;;;5.93
38249;BMP280;24045;51.138;17.126;2023-04-19T21:52:08;100652.02;;;5.85
38249;BMP280;24045;51.138;17.126;2023-04-19T22:07:10;100664.84;;;5.88
38249;BMP280;24045;51.138;17.126;2023-04-19T22:22:20;100660.38;;;5.92
38249;BMP280;24045;51.138;17.126;2023-04-19T22:37:23;100666.11;;;5.95
38249;BMP280;24045;51.138;17.126;2023-04-19T22:52:26;100658.07;;;6.00
38249;BMP280;24045;51.138;17.126;2023-04-19T23:07:29;100653.09;;;6.07
38249;BMP280;24045;51.138;17.126;2023-04-19T23:22:32;100645.52;;;6.10
38249;BMP280;24045;51.138;17.126;2023-04-19T23:37:34;100640.46;;;6.19
38249;BMP280;24045;51.138;17.126;2023-04-19T23:52:38;100637.69;;;6.21
